createdAt,value
2022-07-28T00:01:19.846Z,15.49
2022-07-28T00:03:49.269Z,15.45
2022-07-28T00:06:18.262Z,15.54
2022-07-28T00:08:46.943Z,15.43
2022-07-28T00:11:15.641Z,15.42
2022-07-28T00:13:45.719Z,15.42
2022-07-28T00:16:14.289Z,15.29
2022-07-28T00:18:42.830Z,15.32
2022-07-28T00:21:11.277Z,15.26
2022-07-28T00:23:40.307Z,15.20
2022-07-28T00:26:10.678Z,15.18
2022-07-28T00:28:39.276Z,15.16
2022-07-28T00:31:10.058Z,15.14
2022-07-28T00:33:40.397Z,15.13
2022-07-28T00:36:11.528Z,15.19
2022-07-28T00:38:44.238Z,15.17
2022-07-28T00:41:13.855Z,15.06
2022-07-28T00:43:43.944Z,15.08
2022-07-28T00:46:14.766Z,15.09
2022-07-28T00:48:45.917Z,15.04
2022-07-28T00:51:17.665Z,14.96
2022-07-28T00:53:46.988Z,14.98
2022-07-28T00:56:16.428Z,14.94
2022-07-28T00:58:45.113Z,14.94
2022-07-28T01:01:19.974Z,14.83
2022-07-28T01:03:52.205Z,14.73
2022-07-28T01:06:36.571Z,14.78
2022-07-28T01:09:11.487Z,14.74
2022-07-28T01:11:49.484Z,14.62
2022-07-28T01:14:25.957Z,14.57
2022-07-28T01:17:05.401Z,14.62
2022-07-28T01:19:45.165Z,14.57
2022-07-28T01:22:20.111Z,14.50
2022-07-28T01:24:57.826Z,14.42
2022-07-28T01:27:38.134Z,14.45
2022-07-28T01:30:09.864Z,14.46
2022-07-28T01:32:44.726Z,14.42
2022-07-28T01:35:18.352Z,14.44
2022-07-28T01:37:50.193Z,14.35
2022-07-28T01:40:22.150Z,14.37
2022-07-28T01:42:53.921Z,14.34
2022-07-28T01:45:23.227Z,14.44
2022-07-28T01:47:55.981Z,14.41
2022-07-28T01:50:26.405Z,14.38
2022-07-28T01:52:56.994Z,14.27
2022-07-28T01:55:26.816Z,14.20
2022-07-28T01:57:57.013Z,14.04
2022-07-28T02:00:27.906Z,14.02
2022-07-28T02:02:59.504Z,13.93
2022-07-28T02:05:30.173Z,13.95
2022-07-28T02:08:00.971Z,13.96
2022-07-28T02:10:31.519Z,14.01
2022-07-28T02:13:01.940Z,13.99
2022-07-28T02:15:32.797Z,13.97
2022-07-28T02:18:04.354Z,13.94
2022-07-28T02:20:33.968Z,13.96
2022-07-28T02:23:02.739Z,13.99
2022-07-28T02:25:31.833Z,13.99
2022-07-28T02:28:05.136Z,13.96
2022-07-28T02:30:37.718Z,13.97
2022-07-28T02:33:13.883Z,13.94
2022-07-28T02:35:53.132Z,13.90
2022-07-28T02:38:27.852Z,13.87
2022-07-28T02:40:59.923Z,13.85
2022-07-28T02:43:49.064Z,13.83
2022-07-28T02:46:21.910Z,13.83
2022-07-28T02:48:56.091Z,13.77
2022-07-28T02:51:26.445Z,13.79
2022-07-28T02:53:56.030Z,13.80
2022-07-28T02:56:25.949Z,13.80
2022-07-28T02:58:55.857Z,13.78
2022-07-28T03:01:25.943Z,13.79
2022-07-28T03:03:56.426Z,13.74
2022-07-28T03:06:28.897Z,13.76
2022-07-28T03:08:58.084Z,13.75
2022-07-28T03:11:27.910Z,13.66
2022-07-28T03:13:56.615Z,13.66
2022-07-28T03:16:25.131Z,13.62
2022-07-28T03:18:53.662Z,13.67
2022-07-28T03:21:23.641Z,13.58
2022-07-28T03:23:53.521Z,13.54
2022-07-28T03:26:29.063Z,13.49
2022-07-28T03:28:59.092Z,13.47
2022-07-28T03:31:29.008Z,13.46
2022-07-28T03:33:58.424Z,13.46
2022-07-28T03:36:41.447Z,13.36
2022-07-28T03:39:12.251Z,13.41
2022-07-28T03:41:44.240Z,13.32
2022-07-28T03:44:15.416Z,13.35
2022-07-28T03:46:56.468Z,13.39
2022-07-28T03:49:25.240Z,13.36
2022-07-28T03:51:55.105Z,13.33
2022-07-28T03:54:23.645Z,13.41
2022-07-28T03:56:54.370Z,13.35
2022-07-28T03:59:25.041Z,13.30
2022-07-28T04:01:56.609Z,13.36
2022-07-28T04:04:26.997Z,13.31
2022-07-28T04:06:56.957Z,13.32
2022-07-28T04:09:25.641Z,13.40
2022-07-28T04:11:54.204Z,13.41
2022-07-28T04:14:23.285Z,13.32
2022-07-28T04:16:52.234Z,13.32
2022-07-28T04:19:20.906Z,13.36
2022-07-28T04:21:49.510Z,13.35
2022-07-28T04:24:19.907Z,13.45
2022-07-28T04:26:48.695Z,13.40
2022-07-28T04:29:23.442Z,13.44
2022-07-28T04:31:56.020Z,13.38
2022-07-28T04:34:25.936Z,13.43
2022-07-28T04:36:55.666Z,13.49
2022-07-28T04:39:28.444Z,13.47
2022-07-28T04:41:57.354Z,13.55
2022-07-28T04:44:26.037Z,13.58
2022-07-28T04:46:54.588Z,13.58
2022-07-28T04:49:23.172Z,13.64
2022-07-28T04:51:52.717Z,13.65
2022-07-28T04:54:27.132Z,13.73
2022-07-28T04:56:55.738Z,13.76
2022-07-28T04:59:24.702Z,13.81
2022-07-28T05:01:54.257Z,13.82
2022-07-28T05:04:22.880Z,13.88
2022-07-28T05:06:51.498Z,13.97
2022-07-28T05:09:20.191Z,13.94
2022-07-28T05:11:50.186Z,14.02
2022-07-28T05:14:19.022Z,14.20
2022-07-28T05:16:47.654Z,14.25
2022-07-28T05:19:17.536Z,14.31
2022-07-28T05:21:46.342Z,14.38
2022-07-28T05:24:15.298Z,14.41
2022-07-28T05:26:44.026Z,14.38
2022-07-28T05:29:14.015Z,14.56
2022-07-28T05:31:42.552Z,14.60
2022-07-28T05:34:11.416Z,14.57
2022-07-28T05:36:41.007Z,14.67
2022-07-28T05:39:09.561Z,14.73
2022-07-28T05:41:38.105Z,14.85
2022-07-28T05:44:07.015Z,15.05
2022-07-28T05:46:36.915Z,15.06
2022-07-28T05:49:05.541Z,15.18
2022-07-28T05:51:38.385Z,15.15
2022-07-28T05:54:10.174Z,15.21
2022-07-28T05:56:38.897Z,15.26
2022-07-28T05:59:10.546Z,15.32
2022-07-28T06:01:40.671Z,15.46
2022-07-28T06:04:26.817Z,15.54
2022-07-28T06:06:56.655Z,15.72
2022-07-28T06:09:25.378Z,15.70
2022-07-28T06:11:53.901Z,15.82
2022-07-28T06:14:22.406Z,15.85
2022-07-28T06:16:52.550Z,16.02
2022-07-28T06:19:21.610Z,16.04
2022-07-28T06:21:52.678Z,16.21
2022-07-28T06:24:21.271Z,16.26
2022-07-28T06:26:49.766Z,16.37
2022-07-28T06:29:19.127Z,16.44
2022-07-28T06:31:47.667Z,16.60
2022-07-28T06:34:17.864Z,16.81
2022-07-28T06:36:46.706Z,16.86
2022-07-28T06:39:15.300Z,17.22
2022-07-28T06:41:44.822Z,17.58
2022-07-28T06:44:13.642Z,17.73
2022-07-28T06:46:42.338Z,17.63
2022-07-28T06:49:11.012Z,17.71
2022-07-28T06:51:41.204Z,17.64
2022-07-28T06:54:11.571Z,17.77
2022-07-28T06:56:40.225Z,17.82
2022-07-28T06:59:10.635Z,17.86
2022-07-28T07:01:39.407Z,18.05
2022-07-28T07:04:08.489Z,18.14
2022-07-28T07:06:37.326Z,18.48
2022-07-28T07:09:07.281Z,18.58
2022-07-28T07:11:35.778Z,18.68
2022-07-28T07:14:04.911Z,18.68
2022-07-28T07:16:34.821Z,18.68
2022-07-28T07:19:06.819Z,18.67
2022-07-28T07:21:35.910Z,18.68
2022-07-28T07:24:04.455Z,18.62
2022-07-28T07:26:34.327Z,18.77
2022-07-28T07:29:02.906Z,18.94
2022-07-28T07:31:31.416Z,19.19
2022-07-28T07:34:00.003Z,19.66
2022-07-28T07:36:28.621Z,20.07
2022-07-28T07:38:57.421Z,20.23
2022-07-28T07:41:26.218Z,20.30
2022-07-28T07:43:56.155Z,20.23
2022-07-28T07:46:24.718Z,20.17
2022-07-28T07:48:53.306Z,20.27
2022-07-28T07:51:22.259Z,20.41
2022-07-28T07:53:50.765Z,20.34
2022-07-28T07:56:19.333Z,20.35
2022-07-28T07:58:47.890Z,20.59
2022-07-28T08:01:17.828Z,20.93
2022-07-28T08:03:50.010Z,20.92
2022-07-28T08:06:26.474Z,21.05
2022-07-28T08:08:55.463Z,20.87
2022-07-28T08:11:24.221Z,20.91
2022-07-28T08:13:52.791Z,21.12
2022-07-28T08:16:22.902Z,21.15
2022-07-28T08:18:51.464Z,21.36
2022-07-28T08:21:19.972Z,21.59
2022-07-28T08:23:48.510Z,21.67
2022-07-28T08:26:17.014Z,21.63
2022-07-28T08:28:45.506Z,21.71
2022-07-28T08:31:14.076Z,21.90
2022-07-28T08:33:53.363Z,22.07
2022-07-28T08:36:23.275Z,22.14
2022-07-28T08:38:51.841Z,22.42
2022-07-28T08:41:24.331Z,22.47
2022-07-28T08:43:54.365Z,22.56
2022-07-28T08:46:24.438Z,22.62
2022-07-28T08:48:54.704Z,22.61
2022-07-28T08:51:24.321Z,22.55
2022-07-28T08:53:53.250Z,22.53
2022-07-28T08:56:23.018Z,22.77
2022-07-28T08:58:51.515Z,22.87
2022-07-28T09:01:20.431Z,22.77
2022-07-28T09:03:49.323Z,23.02
2022-07-28T09:06:19.595Z,23.29
2022-07-28T09:08:48.732Z,23.16
2022-07-28T09:11:17.207Z,23.18
2022-07-28T09:13:47.257Z,23.33
2022-07-28T09:16:17.411Z,23.38
2022-07-28T09:18:46.265Z,23.46
2022-07-28T09:21:15.759Z,23.33
2022-07-28T09:23:47.093Z,23.49
2022-07-28T09:26:16.016Z,23.75
2022-07-28T09:28:53.490Z,23.91
2022-07-28T09:31:22.982Z,23.98
2022-07-28T09:33:55.972Z,24.07
2022-07-28T09:36:24.737Z,24.22
2022-07-28T09:38:56.867Z,24.24
2022-07-28T09:41:25.665Z,24.39
2022-07-28T09:43:55.749Z,24.55
2022-07-28T09:46:29.340Z,24.74
2022-07-28T09:48:59.908Z,24.86
2022-07-28T09:51:30.889Z,25.03
2022-07-28T09:54:12.806Z,25.18
2022-07-28T09:56:43.452Z,25.21
2022-07-28T09:59:14.489Z,25.39
2022-07-28T10:01:53.896Z,25.61
2022-07-28T10:04:33.913Z,25.69
2022-07-28T10:07:04.003Z,25.53
2022-07-28T10:09:34.745Z,25.76
2022-07-28T10:12:20.664Z,25.98
2022-07-28T10:14:50.668Z,26.00
2022-07-28T10:17:30.697Z,26.01
2022-07-28T10:20:01.579Z,26.07
2022-07-28T10:22:33.505Z,26.14
2022-07-28T10:25:09.986Z,26.03
2022-07-28T10:27:42.156Z,25.96
2022-07-28T10:30:12.797Z,26.11
2022-07-28T10:32:44.866Z,26.31
2022-07-28T10:35:14.778Z,26.50
2022-07-28T10:37:51.431Z,26.68
2022-07-28T10:40:26.424Z,26.75
2022-07-28T10:42:55.490Z,26.64
2022-07-28T10:45:41.946Z,26.67
2022-07-28T10:48:15.615Z,26.95
2022-07-28T10:50:45.723Z,27.17
2022-07-28T10:53:27.999Z,27.34
2022-07-28T10:56:03.990Z,27.27
2022-07-28T10:58:44.910Z,27.30
2022-07-28T11:01:49.528Z,27.45
2022-07-28T11:04:55.656Z,27.76
2022-07-28T11:07:24.304Z,27.71
2022-07-28T11:09:53.694Z,27.63
2022-07-28T11:12:51.320Z,27.70
2022-07-28T11:15:35.482Z,27.92
2022-07-28T11:18:08.721Z,27.99
2022-07-28T11:21:07.963Z,28.07
2022-07-28T11:23:55.366Z,28.32
2022-07-28T11:26:38.657Z,28.53
2022-07-28T11:29:21.820Z,28.55
2022-07-28T11:32:01.361Z,28.62
2022-07-28T11:34:49.896Z,28.35
2022-07-28T11:37:18.398Z,27.63
2022-07-28T11:39:46.980Z,27.99
2022-07-28T11:42:26.304Z,28.32
2022-07-28T11:44:56.646Z,28.52
2022-07-28T11:47:28.718Z,28.36
2022-07-28T11:50:13.546Z,28.53
2022-07-28T11:52:54.437Z,28.66
2022-07-28T11:55:49.211Z,28.85
2022-07-28T11:58:25.728Z,29.14
2022-07-28T12:03:55.332Z,29.24
2022-07-28T12:06:29.190Z,29.56
2022-07-28T12:09:00.253Z,29.29
2022-07-28T12:11:32.424Z,29.15
2022-07-28T12:14:01.532Z,29.60
2022-07-28T12:16:30.864Z,29.85
2022-07-28T12:19:02.205Z,29.93
2022-07-28T12:21:48.322Z,30.25
2022-07-28T12:24:21.068Z,30.25
2022-07-28T12:26:50.630Z,30.16
2022-07-28T12:29:21.682Z,30.31
2022-07-28T12:31:56.148Z,30.60
2022-07-28T12:34:28.920Z,30.66
2022-07-28T12:36:58.763Z,30.89
2022-07-28T12:39:27.532Z,31.14
2022-07-28T12:42:04.772Z,31.03
2022-07-28T12:44:37.930Z,31.15
2022-07-28T12:47:09.298Z,31.35
2022-07-28T12:49:42.299Z,31.40
2022-07-28T12:52:18.460Z,31.14
2022-07-28T12:54:53.507Z,31.28
2022-07-28T12:57:47.983Z,31.64
2022-07-28T13:00:20.314Z,31.20
2022-07-28T13:02:49.695Z,31.50
2022-07-28T13:05:50.933Z,31.83
2022-07-28T13:08:19.412Z,31.78
2022-07-28T13:10:51.665Z,31.99
2022-07-28T13:13:22.244Z,31.45
2022-07-28T13:16:15.372Z,31.79
2022-07-28T13:18:45.593Z,32.05
2022-07-28T13:21:16.855Z,31.88
2022-07-28T13:23:55.949Z,31.94
2022-07-28T13:26:24.432Z,31.50
2022-07-28T13:29:01.102Z,31.44
2022-07-28T13:31:29.634Z,31.74
2022-07-28T13:33:58.135Z,31.90
2022-07-28T13:36:27.979Z,32.10
2022-07-28T13:38:56.479Z,32.18
2022-07-28T13:41:25.269Z,32.21
2022-07-28T13:44:13.985Z,32.34
2022-07-28T13:46:47.331Z,31.85
2022-07-28T13:49:21.449Z,31.65
2022-07-28T13:51:52.016Z,31.01
2022-07-28T13:54:20.769Z,30.82
2022-07-28T13:57:13.416Z,30.81
2022-07-28T13:59:43.904Z,30.01
2022-07-28T14:02:15.029Z,30.27
2022-07-28T14:04:45.884Z,30.51
2022-07-28T14:07:20.352Z,30.65
2022-07-28T14:09:50.348Z,30.85
2022-07-28T14:12:18.959Z,31.13
2022-07-28T14:14:54.500Z,31.35
2022-07-28T14:20:13.506Z,31.38
2022-07-28T14:22:43.606Z,31.78
2022-07-28T14:25:13.426Z,31.69
2022-07-28T14:27:48.003Z,30.87
2022-07-28T14:30:16.454Z,30.57
2022-07-28T14:32:44.843Z,30.44
2022-07-28T14:35:13.217Z,30.46
2022-07-28T14:40:33.155Z,30.27
2022-07-28T14:43:08.409Z,29.84
2022-07-28T14:45:51.382Z,30.40
2022-07-28T14:48:25.572Z,30.89
2022-07-28T14:50:55.634Z,31.24
2022-07-28T14:53:28.085Z,31.33
2022-07-28T14:55:56.952Z,31.28
2022-07-28T14:58:25.949Z,31.46
2022-07-28T15:00:54.745Z,31.47
2022-07-28T15:03:23.294Z,31.63
2022-07-28T15:05:52.038Z,31.61
2022-07-28T15:08:20.615Z,31.70
2022-07-28T15:10:55.303Z,31.79
2022-07-28T15:13:23.694Z,32.07
2022-07-28T15:15:52.240Z,32.12
2022-07-28T15:18:20.961Z,32.33
2022-07-28T15:20:54.884Z,32.42
2022-07-28T15:23:23.352Z,32.46
2022-07-28T15:25:53.723Z,32.40
2022-07-28T15:28:23.972Z,32.30
2022-07-28T15:30:52.842Z,32.29
2022-07-28T15:33:21.837Z,32.06
2022-07-28T15:35:57.815Z,32.24
2022-07-28T15:38:29.207Z,32.08
2022-07-28T15:40:59.360Z,31.99
2022-07-28T15:43:29.339Z,32.22
2022-07-28T15:45:58.139Z,32.43
2022-07-28T15:48:26.796Z,32.44
2022-07-28T15:50:55.796Z,32.44
2022-07-28T15:53:24.614Z,32.26
2022-07-28T15:55:53.300Z,30.85
2022-07-28T15:58:23.529Z,31.42
2022-07-28T16:00:54.128Z,31.28
2022-07-28T16:03:23.130Z,31.43
2022-07-28T16:05:52.259Z,31.38
2022-07-28T16:08:23.481Z,31.38
2022-07-28T16:10:53.196Z,31.36
2022-07-28T16:13:32.838Z,30.97
2022-07-28T16:16:08.746Z,31.08
2022-07-28T16:18:37.837Z,31.08
2022-07-28T16:21:06.646Z,31.29
2022-07-28T16:23:35.748Z,31.09
2022-07-28T16:26:08.009Z,30.72
2022-07-28T16:28:36.752Z,31.02
2022-07-28T16:31:06.835Z,30.17
2022-07-28T16:33:35.337Z,30.55
2022-07-28T16:36:04.152Z,30.45
2022-07-28T16:38:32.619Z,30.27
2022-07-28T16:41:01.041Z,30.11
2022-07-28T16:43:29.566Z,30.36
2022-07-28T16:45:58.182Z,30.58
2022-07-28T16:48:28.075Z,30.73
2022-07-28T16:50:56.895Z,30.81
2022-07-28T16:53:25.284Z,30.41
2022-07-28T16:55:53.672Z,30.47
2022-07-28T16:58:22.544Z,30.51
2022-07-28T17:00:51.431Z,30.44
2022-07-28T17:03:19.919Z,30.40
2022-07-28T17:05:50.280Z,30.11
2022-07-28T17:08:19.481Z,30.19
2022-07-28T17:10:48.322Z,30.11
2022-07-28T17:13:18.917Z,29.94
2022-07-28T17:15:47.397Z,29.29
2022-07-28T17:18:18.431Z,28.96
2022-07-28T17:20:47.298Z,28.44
2022-07-28T17:23:17.171Z,28.77
2022-07-28T17:26:09.066Z,29.04
2022-07-28T17:28:34.702Z,29.15
2022-07-28T17:31:03.164Z,28.97
2022-07-28T17:33:31.720Z,29.02
2022-07-28T17:36:00.764Z,28.97
2022-07-28T17:38:33.242Z,29.04
2022-07-28T17:41:04.467Z,29.13
2022-07-28T17:43:33.353Z,29.04
2022-07-28T17:46:02.935Z,29.08
2022-07-28T17:48:36.988Z,29.12
2022-07-28T17:51:05.680Z,29.15
2022-07-28T17:53:39.209Z,29.11
2022-07-28T17:56:08.930Z,29.18
2022-07-28T17:58:37.890Z,29.27
2022-07-28T18:01:12.162Z,29.28
2022-07-28T18:03:57.968Z,29.29
2022-07-28T18:06:27.463Z,29.27
2022-07-28T18:08:57.522Z,29.26
2022-07-28T18:11:31.391Z,29.22
2022-07-28T18:14:03.879Z,29.21
2022-07-28T18:16:46.405Z,29.16
2022-07-28T18:19:14.943Z,29.11
2022-07-28T18:21:43.921Z,29.02
2022-07-28T18:24:14.202Z,29.00
2022-07-28T18:26:42.926Z,28.93
2022-07-28T18:29:11.328Z,28.87
2022-07-28T18:31:45.888Z,28.80
2022-07-28T18:34:15.864Z,28.74
2022-07-28T18:36:44.721Z,28.66
2022-07-28T18:39:14.783Z,28.60
2022-07-28T18:41:46.286Z,28.45
2022-07-28T18:44:17.247Z,28.40
2022-07-28T18:46:46.813Z,28.34
2022-07-28T18:49:15.446Z,28.29
2022-07-28T18:51:45.263Z,28.22
2022-07-28T18:54:21.506Z,28.07
2022-07-28T18:56:55.765Z,27.92
2022-07-28T18:59:24.527Z,27.75
2022-07-28T19:01:53.272Z,27.56
2022-07-28T19:04:21.741Z,27.35
2022-07-28T19:06:50.188Z,27.24
2022-07-28T19:09:20.035Z,27.09
2022-07-28T19:11:48.657Z,27.00
2022-07-28T19:14:17.892Z,26.88
2022-07-28T19:16:46.802Z,26.79
2022-07-28T19:19:15.497Z,26.68
2022-07-28T19:21:46.806Z,26.58
2022-07-28T19:24:17.224Z,26.49
2022-07-28T19:26:48.561Z,26.38
2022-07-28T19:29:17.174Z,26.27
2022-07-28T19:31:48.878Z,26.09
2022-07-28T19:34:17.591Z,25.99
2022-07-28T19:36:47.789Z,25.88
2022-07-28T19:39:16.406Z,25.77
2022-07-28T19:41:44.885Z,25.67
2022-07-28T19:44:15.485Z,25.57
2022-07-28T19:46:45.038Z,25.48
2022-07-28T19:49:13.707Z,25.30
2022-07-28T19:51:42.217Z,25.24
2022-07-28T19:54:15.421Z,25.16
2022-07-28T19:56:44.291Z,25.07
2022-07-28T19:59:12.682Z,24.98
2022-07-28T20:01:46.726Z,24.88
2022-07-28T20:04:19.135Z,24.78
2022-07-28T20:06:50.877Z,24.69
2022-07-28T20:09:23.464Z,24.57
2022-07-28T20:11:52.426Z,24.48
2022-07-28T20:14:21.072Z,24.40
2022-07-28T20:16:51.038Z,24.31
2022-07-28T20:19:19.508Z,24.22
2022-07-28T20:21:48.078Z,24.15
2022-07-28T20:24:19.464Z,24.06
2022-07-28T20:26:48.046Z,23.97
2022-07-28T20:29:16.698Z,23.90
2022-07-28T20:31:45.090Z,23.82
2022-07-28T20:34:15.399Z,23.74
2022-07-28T20:36:44.360Z,23.64
2022-07-28T20:39:42.044Z,23.56
2022-07-28T20:42:01.408Z,23.47
2022-07-28T20:44:30.512Z,23.40
2022-07-28T20:47:00.744Z,23.30
2022-07-28T20:49:31.098Z,23.23
2022-07-28T20:51:59.807Z,23.14
2022-07-28T20:54:28.288Z,23.05
2022-07-28T20:56:56.861Z,22.94
2022-07-28T20:59:27.955Z,22.87
2022-07-28T21:01:57.101Z,22.81
2022-07-28T21:04:26.794Z,22.74
2022-07-28T21:07:02.034Z,22.64
2022-07-28T21:09:32.619Z,22.54
2022-07-28T21:12:01.219Z,22.42
2022-07-28T21:14:29.739Z,22.34
2022-07-28T21:16:58.231Z,22.27
2022-07-28T21:19:26.755Z,22.19
2022-07-28T21:21:56.589Z,22.12
2022-07-28T21:24:24.983Z,22.03
2022-07-28T21:26:53.777Z,21.95
2022-07-28T21:32:02.072Z,21.92
2022-07-28T21:34:35.084Z,21.82
2022-07-28T21:37:06.893Z,21.70
2022-07-28T21:39:36.929Z,21.65
2022-07-28T21:42:08.426Z,21.70
2022-07-28T21:44:38.151Z,21.74
2022-07-28T21:47:06.912Z,21.76
2022-07-28T21:49:35.431Z,21.77
2022-07-28T21:52:05.665Z,21.74
2022-07-28T21:54:34.254Z,21.72
2022-07-28T21:57:02.633Z,21.71
2022-07-28T21:59:34.333Z,21.70
2022-07-28T22:02:02.798Z,21.69
2022-07-28T22:04:31.335Z,21.66
2022-07-28T22:06:59.733Z,21.66
2022-07-28T22:09:32.709Z,21.62
2022-07-28T22:12:03.419Z,21.59
2022-07-28T22:14:32.866Z,21.42
2022-07-28T22:17:02.176Z,21.24
2022-07-28T22:19:31.581Z,21.11
2022-07-28T22:22:00.561Z,21.00
2022-07-28T22:24:30.457Z,20.87
2022-07-28T22:26:59.488Z,20.77
2022-07-28T22:29:27.915Z,20.66
2022-07-28T22:31:59.821Z,20.56
2022-07-28T22:34:28.978Z,20.45
2022-07-28T22:36:57.419Z,20.39
2022-07-28T22:39:25.953Z,20.30
2022-07-28T22:41:55.863Z,20.27
2022-07-28T22:44:24.349Z,20.20
2022-07-28T22:46:52.743Z,20.12
2022-07-28T22:49:21.275Z,20.07
2022-07-28T22:51:50.597Z,20.01
2022-07-28T22:54:19.094Z,19.95
2022-07-28T22:56:47.934Z,19.89
2022-07-28T22:59:17.980Z,19.82
2022-07-28T23:01:46.637Z,19.77
2022-07-28T23:04:15.468Z,19.71
2022-07-28T23:06:44.178Z,19.67
2022-07-28T23:09:12.837Z,19.68
2022-07-28T23:11:41.290Z,19.65
2022-07-28T23:14:25.492Z,19.56
2022-07-28T23:16:53.905Z,19.51
2022-07-28T23:19:22.310Z,19.45
2022-07-28T23:21:50.879Z,19.35
2022-07-28T23:24:19.501Z,19.31
2022-07-28T23:26:48.026Z,19.27
2022-07-28T23:29:16.625Z,19.20
2022-07-28T23:31:46.500Z,19.15
2022-07-28T23:34:15.276Z,19.10
2022-07-28T23:36:44.480Z,19.06
2022-07-28T23:39:13.213Z,19.00
2022-07-28T23:41:41.798Z,18.95
2022-07-28T23:44:10.232Z,18.90
2022-07-28T23:46:38.715Z,18.86
2022-07-28T23:49:08.727Z,18.80
2022-07-28T23:51:47.581Z,18.76
2022-07-28T23:54:17.666Z,18.65
2022-07-28T23:56:46.333Z,18.64
2022-07-28T23:59:14.985Z,18.60
